Gruenow, Germany

12:28 PM CEST on July 31, 2016 (GMT +0200)
Zum Gutshof | | Change Station

Elev 88 ft 53.31 °N, 13.81 °E | Updated 8 minutes ago

Mostly Cloudy
Mostly Cloudy
74.8 °F
Feels Like 77 °F
N
0.6
Wind Variable Wind from WSW
Gusts 1.2 mph

Today
High -- | Low -- °F
--% Chance of Precip.
Yesterday
High -- | Low -- °F
Precip. -- in
Pressure 29.89 in
Visibility 6.2 miles
Clouds Mostly Cloudy 4900 ft
Heat Index 77 °F
Dew Point 59 °F
Humidity 57%
Rainfall 0.00 in
Snow Depth Not available.
5:19 AM 9:00 PM
Waning Crescent, 7% visible
METAR EDAH 311020Z VRB03KT 9999 BKN049 21/13 Q1012
Pressure 29.89 in
Visibility 6.2 miles
Clouds Mostly Cloudy 4900 ft
Heat Index 77 °F
Dew Point 59 °F
Humidity 57%
Rainfall 0.00 in
Snow Depth Not available.
5:19 AM 9:00 PM
Waning Crescent, 7% visible
METAR EDAH 311020Z VRB03KT 9999 BKN049 21/13 Q1012

10-Day Weather Forecast

×

Almanac

Astronomy

Jul. 31, 2016 Rise Set
Actual Time
Civil Twilight
Nautical Twilight
Astronomical Twilight
Moon
Length of Visible Light
Length of Day
Tomorrow will be .
, % of the Moon is Illuminated

Today's Extremes

Country Highs Country Lows

Community

WunderPhotos

Upload Photos

1,928,778 photos uploaded!

WunderBlog® & News

Nearby

Air Quality

  Air Quality AQ Index Pollutant
Not available.

Snow Depth

Station Depth Elevation

Earthquake Activity

City Distance Mag. Time & Date
Minimum magnitude displayed is 2.5.

Coastal Water Temperatures

Place Temperature

Stations

Nearby Weather Stations

Station Location Temp. Windchill Dew Point Humidity Wind Precip. Elev Updated Type